createdAt,value
2018-09-16T00:01:24.049Z,2.50
2018-09-16T00:03:51.716Z,2.77
2018-09-16T00:06:19.414Z,3.00
2018-09-16T00:08:47.057Z,3.17
2018-09-16T00:11:14.736Z,3.22
2018-09-16T00:13:42.429Z,3.07
2018-09-16T00:16:10.105Z,3.33
2018-09-16T00:18:37.752Z,3.40
2018-09-16T00:21:05.467Z,2.30
2018-09-16T00:23:33.136Z,2.40
2018-09-16T00:26:00.760Z,1.82
2018-09-16T00:28:28.470Z,3.10
2018-09-16T00:30:56.136Z,2.70
2018-09-16T00:33:23.736Z,2.83
2018-09-16T00:35:51.440Z,3.87
2018-09-16T00:38:19.130Z,2.60
2018-09-16T00:40:46.770Z,2.80
2018-09-16T00:43:14.390Z,3.35
2018-09-16T00:45:42.142Z,2.83
2018-09-16T00:48:09.820Z,2.80
2018-09-16T00:50:37.531Z,2.80
2018-09-16T00:53:05.260Z,3.27
2018-09-16T00:55:32.908Z,3.40
2018-09-16T00:58:00.553Z,3.20
2018-09-16T01:00:28.431Z,4.23
2018-09-16T01:02:56.140Z,4.70
2018-09-16T01:05:23.902Z,4.03
2018-09-16T01:07:51.638Z,4.30
2018-09-16T01:10:19.378Z,3.57
2018-09-16T01:12:47.013Z,3.20
2018-09-16T01:15:14.670Z,3.15
2018-09-16T01:17:42.393Z,3.70
2018-09-16T01:20:10.227Z,3.27
2018-09-16T01:22:37.905Z,3.00
2018-09-16T01:25:05.889Z,3.08
2018-09-16T01:27:33.567Z,3.12
2018-09-16T01:30:01.286Z,3.00
2018-09-16T01:32:28.899Z,3.70
2018-09-16T01:34:56.763Z,2.67
2018-09-16T01:37:30.328Z,3.30
2018-09-16T01:39:57.990Z,2.90
2018-09-16T01:42:25.653Z,3.43
2018-09-16T01:44:53.353Z,3.60
2018-09-16T01:47:21.039Z,2.30
2018-09-16T01:49:48.629Z,2.80
2018-09-16T01:52:16.321Z,2.90
2018-09-16T01:54:44.001Z,3.30
2018-09-16T01:57:11.758Z,3.92
2018-09-16T01:59:39.451Z,3.22
2018-09-16T02:02:07.095Z,3.43
2018-09-16T02:04:43.482Z,3.20
2018-09-16T02:07:12.467Z,3.50
2018-09-16T02:09:40.179Z,2.77
2018-09-16T02:12:08.068Z,3.20
2018-09-16T02:14:35.729Z,3.40
2018-09-16T02:17:03.424Z,4.03
2018-09-16T02:19:31.088Z,4.55
2018-09-16T02:21:58.706Z,3.50
2018-09-16T02:24:26.360Z,2.97
2018-09-16T02:26:54.054Z,3.07
2018-09-16T02:29:21.820Z,3.33
2018-09-16T02:31:50.446Z,3.22
2018-09-16T02:34:18.106Z,3.67
2018-09-16T02:36:45.811Z,3.50
2018-09-16T02:39:13.571Z,3.37
2018-09-16T02:41:41.248Z,3.33
2018-09-16T02:44:09.012Z,3.37
2018-09-16T02:46:36.665Z,3.92
2018-09-16T02:49:04.331Z,3.57
2018-09-16T02:51:32.092Z,3.60
2018-09-16T02:53:59.760Z,4.23
2018-09-16T02:56:27.657Z,3.70
2018-09-16T02:58:55.351Z,2.77
2018-09-16T03:01:23.217Z,3.43
2018-09-16T03:03:50.910Z,3.10
2018-09-16T03:06:23.241Z,2.83
2018-09-16T03:08:50.998Z,2.83
2018-09-16T03:11:18.669Z,3.40
2018-09-16T03:13:46.379Z,3.60
2018-09-16T03:16:14.110Z,3.00
2018-09-16T03:18:41.765Z,3.17
2018-09-16T03:21:09.346Z,2.83
2018-09-16T03:23:37.014Z,3.60
2018-09-16T03:26:04.721Z,3.35
2018-09-16T03:28:32.420Z,3.70
2018-09-16T03:31:00.060Z,3.60
2018-09-16T03:33:27.741Z,4.07
2018-09-16T03:35:55.349Z,4.03
2018-09-16T03:38:23.030Z,3.25
2018-09-16T03:40:50.830Z,3.30
2018-09-16T03:43:18.541Z,2.73
2018-09-16T03:45:46.331Z,2.87
2018-09-16T03:48:14.019Z,3.37
2018-09-16T03:50:41.727Z,3.45
2018-09-16T03:53:09.422Z,3.20
2018-09-16T03:55:37.072Z,2.87
2018-09-16T03:58:04.877Z,2.80
2018-09-16T04:00:32.541Z,3.00
2018-09-16T04:03:00.213Z,2.90
2018-09-16T04:05:27.815Z,3.15
2018-09-16T04:07:55.445Z,3.10
2018-09-16T04:10:23.145Z,2.73
2018-09-16T04:12:50.903Z,3.20
2018-09-16T04:15:18.992Z,2.97
2018-09-16T04:17:46.747Z,2.90
2018-09-16T04:20:14.513Z,2.90
2018-09-16T04:22:42.251Z,3.17
2018-09-16T04:25:09.912Z,3.37
2018-09-16T04:27:37.594Z,3.30
2018-09-16T04:30:05.696Z,3.60
2018-09-16T04:32:33.396Z,3.30
2018-09-16T04:35:00.994Z,3.57
2018-09-16T04:37:28.626Z,3.27
2018-09-16T04:39:57.054Z,2.83
2018-09-16T04:42:24.740Z,2.80
2018-09-16T04:44:52.387Z,3.60
2018-09-16T04:47:20.116Z,2.67
2018-09-16T04:49:47.843Z,3.03
2018-09-16T04:52:15.557Z,3.13
2018-09-16T04:54:43.220Z,3.30
2018-09-16T04:57:10.905Z,3.63
2018-09-16T04:59:38.548Z,2.98
2018-09-16T05:02:06.311Z,2.67
2018-09-16T05:04:33.969Z,3.20
2018-09-16T05:07:01.543Z,2.73
2018-09-16T05:09:30.205Z,2.90
2018-09-16T05:11:57.845Z,3.08
2018-09-16T05:14:25.555Z,2.85
2018-09-16T05:16:53.210Z,2.70
2018-09-16T05:19:20.991Z,3.23
2018-09-16T05:21:48.685Z,3.00
2018-09-16T05:24:16.306Z,2.83
2018-09-16T05:26:44.538Z,2.87
2018-09-16T05:29:12.179Z,3.13
2018-09-16T05:31:39.955Z,2.83
2018-09-16T05:34:07.614Z,2.85
2018-09-16T05:36:35.427Z,3.20
2018-09-16T05:39:04.273Z,2.77
2018-09-16T05:41:31.925Z,2.20
2018-09-16T05:43:59.625Z,3.07
2018-09-16T05:46:27.302Z,2.87
2018-09-16T05:48:54.930Z,2.70
2018-09-16T05:51:22.580Z,2.77
2018-09-16T05:53:50.250Z,2.70
2018-09-16T05:56:18.069Z,2.73
2018-09-16T05:58:45.708Z,2.67
2018-09-16T06:01:13.378Z,2.67
2018-09-16T06:03:41.083Z,2.50
2018-09-16T06:06:08.786Z,3.00
2018-09-16T06:08:37.261Z,3.30
2018-09-16T06:11:05.610Z,2.90
2018-09-16T06:13:33.258Z,3.20
2018-09-16T06:16:00.870Z,2.23
2018-09-16T06:18:28.431Z,2.72
2018-09-16T06:20:56.066Z,2.80
2018-09-16T06:23:23.698Z,2.40
2018-09-16T06:25:51.336Z,2.80
2018-09-16T06:28:19.075Z,2.65
2018-09-16T06:30:46.772Z,2.50
2018-09-16T06:33:14.503Z,2.57
2018-09-16T06:35:42.122Z,2.77
2018-09-16T06:38:09.833Z,3.17
2018-09-16T06:40:37.489Z,2.47
2018-09-16T06:43:05.445Z,2.50
2018-09-16T06:45:33.418Z,2.20
2018-09-16T06:48:01.123Z,3.17
2018-09-16T06:50:28.914Z,2.70
2018-09-16T06:52:56.655Z,2.73
2018-09-16T06:55:24.361Z,3.20
2018-09-16T06:57:51.977Z,2.20
2018-09-16T07:00:19.563Z,2.30
2018-09-16T07:02:47.180Z,2.17
2018-09-16T07:05:14.945Z,2.73
2018-09-16T07:07:42.710Z,11.40
2018-09-16T07:10:10.394Z,3.00
2018-09-16T07:12:38.015Z,5.33
2018-09-16T07:15:05.827Z,4.40
2018-09-16T07:17:33.479Z,2.10
2018-09-16T07:20:01.145Z,3.10
2018-09-16T07:22:28.820Z,3.05
2018-09-16T07:24:56.451Z,2.80
2018-09-16T07:27:24.126Z,2.73
2018-09-16T07:29:51.728Z,2.73
2018-09-16T07:32:19.418Z,2.62
2018-09-16T07:34:47.126Z,6.92
2018-09-16T07:37:14.956Z,7.77
2018-09-16T07:39:42.587Z,3.73
2018-09-16T07:42:10.538Z,2.60
2018-09-16T07:44:38.240Z,2.50
2018-09-16T07:47:05.929Z,3.30
2018-09-16T07:49:33.561Z,2.63
2018-09-16T07:52:01.205Z,3.02
2018-09-16T07:54:28.974Z,3.13
2018-09-16T07:56:56.645Z,2.50
2018-09-16T07:59:24.316Z,3.17
2018-09-16T08:01:51.976Z,4.05
2018-09-16T08:04:19.666Z,5.50
2018-09-16T08:06:47.326Z,3.70
2018-09-16T08:09:15.066Z,5.53
2018-09-16T08:11:42.801Z,3.13
2018-09-16T08:14:10.514Z,4.70
2018-09-16T08:16:38.262Z,4.75
2018-09-16T08:19:06.782Z,2.87
2018-09-16T08:21:34.626Z,3.10
2018-09-16T08:24:02.306Z,6.10
2018-09-16T08:26:30.072Z,3.07
2018-09-16T08:28:57.740Z,2.93
2018-09-16T08:31:25.416Z,2.65
2018-09-16T08:33:53.109Z,3.30
2018-09-16T08:36:20.771Z,3.00
2018-09-16T08:38:48.423Z,3.70
2018-09-16T08:41:16.117Z,3.90
2018-09-16T08:43:43.865Z,3.27
2018-09-16T08:46:11.511Z,3.13
2018-09-16T08:48:39.331Z,2.20
2018-09-16T08:51:07.655Z,3.55
2018-09-16T08:53:35.344Z,3.50
2018-09-16T08:56:03.077Z,3.43
2018-09-16T08:58:31.113Z,3.02
2018-09-16T09:00:58.741Z,3.45
2018-09-16T09:03:26.435Z,2.92
2018-09-16T09:05:54.151Z,2.80
2018-09-16T09:08:21.853Z,3.50
2018-09-16T09:10:49.533Z,2.80
2018-09-16T09:13:17.154Z,2.83
2018-09-16T09:15:44.989Z,2.60
2018-09-16T09:18:13.022Z,2.40
2018-09-16T09:20:40.762Z,2.40
2018-09-16T09:23:08.472Z,2.17
2018-09-16T09:25:36.038Z,2.67
2018-09-16T09:28:03.762Z,2.57
2018-09-16T09:30:31.411Z,2.93
2018-09-16T09:32:59.108Z,1.80
2018-09-16T09:35:26.912Z,2.10
2018-09-16T09:37:54.574Z,1.90
2018-09-16T09:40:22.344Z,2.20
2018-09-16T09:42:50.054Z,1.80
2018-09-16T09:45:17.738Z,2.30
2018-09-16T09:47:45.454Z,1.90
2018-09-16T09:50:13.230Z,2.37
2018-09-16T09:52:40.864Z,4.03
2018-09-16T09:55:08.576Z,2.80
2018-09-16T09:57:36.225Z,1.97
2018-09-16T10:00:04.154Z,2.12
2018-09-16T10:02:31.851Z,1.70
2018-09-16T10:04:59.631Z,1.60
2018-09-16T10:07:27.749Z,2.15
2018-09-16T10:09:55.503Z,2.40
2018-09-16T10:12:23.749Z,2.17
2018-09-16T10:14:51.984Z,1.63
2018-09-16T10:17:20.359Z,2.02
2018-09-16T10:19:48.019Z,2.30
2018-09-16T10:22:15.752Z,1.77
2018-09-16T10:24:43.499Z,1.75
2018-09-16T10:27:11.524Z,1.42
2018-09-16T10:29:39.231Z,1.62
2018-09-16T10:32:06.898Z,1.47
2018-09-16T10:34:35.184Z,1.63
2018-09-16T10:37:02.826Z,4.53
2018-09-16T10:39:30.555Z,1.85
2018-09-16T10:41:59.139Z,1.60
2018-09-16T10:44:26.827Z,2.12
2018-09-16T10:46:54.552Z,2.92
2018-09-16T10:49:22.244Z,1.52
2018-09-16T10:51:49.962Z,2.37
2018-09-16T10:54:17.685Z,1.47
2018-09-16T10:56:45.600Z,2.03
2018-09-16T10:59:16.565Z,1.50
2018-09-16T11:01:44.649Z,1.47
2018-09-16T11:04:12.386Z,2.10
2018-09-16T11:06:40.013Z,1.27
2018-09-16T11:09:09.014Z,1.40
2018-09-16T11:11:36.636Z,1.30
2018-09-16T11:14:04.390Z,1.20
2018-09-16T11:16:32.103Z,1.90
2018-09-16T11:18:59.749Z,1.30
2018-09-16T11:21:27.340Z,1.90
2018-09-16T11:23:55.091Z,1.73
2018-09-16T11:26:22.888Z,1.23
2018-09-16T11:28:50.583Z,1.33
2018-09-16T11:31:18.686Z,1.25
2018-09-16T11:33:46.359Z,1.07
2018-09-16T11:36:14.849Z,1.20
2018-09-16T11:38:42.494Z,2.00
2018-09-16T11:41:10.145Z,2.87
2018-09-16T11:43:37.844Z,1.47
2018-09-16T11:46:05.526Z,1.30
2018-09-16T11:48:37.149Z,1.55
2018-09-16T11:51:05.183Z,1.40
2018-09-16T11:53:32.846Z,3.33
2018-09-16T11:56:00.482Z,1.17
2018-09-16T11:58:28.520Z,1.50
2018-09-16T12:00:56.208Z,0.93
2018-09-16T12:03:23.975Z,1.17
2018-09-16T12:05:51.709Z,1.10
2018-09-16T12:08:19.578Z,1.07
2018-09-16T12:10:47.265Z,1.03
2018-09-16T12:13:15.058Z,0.90
2018-09-16T12:15:42.803Z,1.00
2018-09-16T12:18:11.619Z,0.80
2018-09-16T12:20:41.674Z,1.10
2018-09-16T12:23:09.451Z,1.00
2018-09-16T12:25:37.228Z,1.40
2018-09-16T12:28:04.966Z,1.03
2018-09-16T12:30:32.850Z,3.35
2018-09-16T12:33:00.973Z,1.40
2018-09-16T12:35:28.705Z,1.17
2018-09-16T12:37:56.467Z,1.00
2018-09-16T12:40:24.159Z,1.57
2018-09-16T12:42:51.930Z,0.90
2018-09-16T12:45:19.651Z,0.97
2018-09-16T12:47:47.377Z,1.20
2018-09-16T12:50:15.034Z,1.10
2018-09-16T12:52:42.714Z,1.10
2018-09-16T12:55:10.383Z,1.30
2018-09-16T12:57:38.034Z,0.90
2018-09-16T13:00:05.910Z,1.33
2018-09-16T13:02:33.544Z,1.80
2018-09-16T13:05:01.328Z,1.00
2018-09-16T13:07:29.293Z,1.10
2018-09-16T13:09:56.967Z,1.43
2018-09-16T13:12:24.639Z,1.20
2018-09-16T13:14:52.408Z,1.10
2018-09-16T13:17:20.176Z,1.30
2018-09-16T13:19:47.934Z,2.03
2018-09-16T13:22:15.657Z,1.13
2018-09-16T13:24:43.369Z,1.70
2018-09-16T13:27:11.033Z,1.80
2018-09-16T13:29:38.775Z,1.00
2018-09-16T13:32:06.702Z,0.90
2018-09-16T13:34:34.358Z,1.70
2018-09-16T13:37:02.104Z,1.20
2018-09-16T13:39:29.729Z,1.47
2018-09-16T13:41:57.569Z,1.35
2018-09-16T13:44:25.254Z,1.42
2018-09-16T13:46:52.913Z,1.20
2018-09-16T13:49:20.585Z,1.13
2018-09-16T13:51:48.348Z,1.60
2018-09-16T13:54:16.007Z,1.10
2018-09-16T13:56:44.189Z,1.47
2018-09-16T13:59:11.973Z,1.67
2018-09-16T14:01:39.600Z,1.30
2018-09-16T14:04:07.289Z,4.50
2018-09-16T14:06:34.941Z,2.92
2018-09-16T14:09:02.699Z,2.87
2018-09-16T14:11:30.348Z,2.53
2018-09-16T14:13:57.962Z,1.60
2018-09-16T14:16:25.621Z,2.22
2018-09-16T14:18:53.304Z,2.30
2018-09-16T14:21:21.047Z,1.80
2018-09-16T14:23:48.709Z,1.90
2018-09-16T14:26:16.404Z,1.83
2018-09-16T14:28:44.108Z,1.00
2018-09-16T14:31:11.752Z,1.77
2018-09-16T14:33:39.458Z,1.77
2018-09-16T14:36:07.107Z,1.00
2018-09-16T14:38:34.804Z,1.00
2018-09-16T14:41:02.467Z,1.03
2018-09-16T14:43:30.074Z,1.07
2018-09-16T14:45:57.749Z,0.90
2018-09-16T14:48:25.452Z,1.13
2018-09-16T14:50:53.122Z,1.12
2018-09-16T14:53:20.705Z,1.30
2018-09-16T14:55:48.396Z,0.97
2018-09-16T14:58:16.090Z,1.13
2018-09-16T15:00:43.847Z,1.53
2018-09-16T15:03:11.517Z,0.93
2018-09-16T15:05:39.148Z,1.00
2018-09-16T15:08:06.882Z,1.00
2018-09-16T15:10:34.667Z,1.45
2018-09-16T15:13:02.344Z,1.10
2018-09-16T15:15:30.030Z,1.30
2018-09-16T15:17:57.668Z,1.00
2018-09-16T15:20:25.343Z,1.00
2018-09-16T15:22:53.064Z,0.90
2018-09-16T15:25:20.771Z,1.00
2018-09-16T15:27:48.431Z,1.17
2018-09-16T15:30:16.186Z,1.23
2018-09-16T15:32:43.827Z,1.50
2018-09-16T15:35:11.477Z,0.97
2018-09-16T15:37:39.185Z,1.42
2018-09-16T15:40:06.913Z,1.37
2018-09-16T15:42:34.741Z,1.13
2018-09-16T15:45:09.187Z,1.40
2018-09-16T15:47:36.763Z,4.50
2018-09-16T15:50:04.925Z,1.10
2018-09-16T15:52:32.735Z,1.10
2018-09-16T15:55:00.593Z,1.30
2018-09-16T16:00:02.721Z,2.07
2018-09-16T16:02:30.386Z,1.77
2018-09-16T16:04:58.118Z,1.90
2018-09-16T16:07:25.824Z,1.98
2018-09-16T16:09:53.606Z,2.27
2018-09-16T16:12:21.355Z,2.47
2018-09-16T16:14:49.223Z,1.47
2018-09-16T16:17:16.958Z,1.70
2018-09-16T16:19:44.645Z,2.10
2018-09-16T16:22:12.411Z,2.07
2018-09-16T16:24:40.109Z,1.63
2018-09-16T16:27:07.773Z,2.50
2018-09-16T16:29:35.942Z,2.50
2018-09-16T16:32:03.681Z,2.05
2018-09-16T16:34:31.369Z,1.98
2018-09-16T16:36:59.061Z,2.60
2018-09-16T16:39:27.216Z,9.60
2018-09-16T16:41:54.917Z,7.72
2018-09-16T16:44:22.643Z,8.17
2018-09-16T16:46:50.401Z,4.30
2018-09-16T16:49:18.143Z,3.40
2018-09-16T16:51:45.850Z,4.00
2018-09-16T16:54:13.679Z,12.90
2018-09-16T16:56:41.428Z,4.13
2018-09-16T16:59:09.204Z,5.53
2018-09-16T17:01:36.850Z,4.83
2018-09-16T17:04:04.638Z,3.00
2018-09-16T17:06:32.294Z,3.62
2018-09-16T17:08:59.904Z,3.40
2018-09-16T17:11:27.634Z,3.27
2018-09-16T17:13:55.322Z,4.80
2018-09-16T17:16:22.938Z,3.60
2018-09-16T17:18:50.693Z,3.33
2018-09-16T17:21:18.378Z,4.20
2018-09-16T17:23:46.099Z,4.67
2018-09-16T17:26:13.742Z,4.20
2018-09-16T17:28:41.374Z,3.93
2018-09-16T17:31:09.280Z,4.10
2018-09-16T17:33:36.979Z,4.13
2018-09-16T17:36:04.666Z,3.33
2018-09-16T17:38:32.410Z,3.10
2018-09-16T17:41:00.112Z,3.00
2018-09-16T17:43:27.724Z,2.55
2018-09-16T17:45:55.446Z,2.92
2018-09-16T17:48:23.164Z,2.90
2018-09-16T17:50:50.841Z,3.30
2018-09-16T17:53:18.649Z,3.93
2018-09-16T17:55:46.434Z,2.73
2018-09-16T17:58:14.098Z,3.70
2018-09-16T18:00:41.890Z,3.95
2018-09-16T18:03:09.718Z,3.17
2018-09-16T18:05:37.388Z,4.53
2018-09-16T18:08:05.288Z,3.40
2018-09-16T18:10:32.987Z,2.90
2018-09-16T18:13:00.774Z,3.27
2018-09-16T18:15:28.426Z,3.00
2018-09-16T18:17:56.139Z,2.50
2018-09-16T18:20:24.132Z,2.60
2018-09-16T18:22:51.918Z,2.60
2018-09-16T18:25:19.946Z,2.67
2018-09-16T18:27:47.894Z,2.60
2018-09-16T18:30:15.772Z,3.40
2018-09-16T18:35:21.147Z,3.00
2018-09-16T18:37:48.889Z,3.40
2018-09-16T18:40:16.874Z,3.63
2018-09-16T18:42:45.068Z,3.80
2018-09-16T18:45:12.874Z,2.97
2018-09-16T18:47:40.600Z,2.30
2018-09-16T18:50:08.703Z,3.10
2018-09-16T18:52:36.439Z,2.70
2018-09-16T18:55:04.330Z,3.40
2018-09-16T18:57:32.024Z,3.67
2018-09-16T19:00:00.025Z,3.70
2018-09-16T19:02:27.725Z,4.37
2018-09-16T19:04:55.514Z,3.55
2018-09-16T19:07:23.584Z,4.10
2018-09-16T19:09:51.412Z,3.23
2018-09-16T19:12:19.282Z,5.20
2018-09-16T19:14:47.144Z,5.97
2018-09-16T19:17:15.056Z,5.33
2018-09-16T19:19:43.294Z,3.92
2018-09-16T19:22:11.013Z,5.40
2018-09-16T19:24:38.764Z,2.93
2018-09-16T19:27:07.444Z,6.22
2018-09-16T19:29:35.596Z,3.80
2018-09-16T19:32:03.556Z,2.97
2018-09-16T19:34:31.382Z,6.37
2018-09-16T19:36:59.169Z,4.37
2018-09-16T19:39:27.420Z,3.90
2018-09-16T19:41:55.574Z,3.23
2018-09-16T19:44:23.627Z,4.50
2018-09-16T19:46:51.585Z,4.43
2018-09-16T19:49:19.406Z,4.90
2018-09-16T19:51:47.302Z,5.07
2018-09-16T19:54:15.448Z,4.60
2018-09-16T19:56:43.492Z,4.33
2018-09-16T19:59:11.833Z,4.80
2018-09-16T20:01:40.653Z,5.47
2018-09-16T20:04:10.493Z,6.20
2018-09-16T20:06:38.722Z,4.90
2018-09-16T20:09:09.439Z,4.93
2018-09-16T20:11:37.146Z,6.10
2018-09-16T20:14:05.034Z,5.90
2018-09-16T20:16:33.093Z,6.00
2018-09-16T20:19:00.972Z,6.20
2018-09-16T20:21:28.949Z,7.90
2018-09-16T20:23:56.674Z,5.83
2018-09-16T20:26:24.870Z,7.13
2018-09-16T20:28:52.646Z,5.50
2018-09-16T20:31:20.445Z,6.27
2018-09-16T20:33:48.495Z,5.53
2018-09-16T20:36:16.322Z,6.20
2018-09-16T20:38:44.350Z,5.20
2018-09-16T20:41:16.642Z,4.53
2018-09-16T20:43:44.431Z,5.27
2018-09-16T20:46:12.170Z,4.73
2018-09-16T20:48:39.927Z,4.90
2018-09-16T20:51:07.591Z,4.47
2018-09-16T20:53:35.318Z,4.15
2018-09-16T20:56:03.045Z,5.13
2018-09-16T20:58:30.852Z,4.33
2018-09-16T21:00:58.688Z,4.77
2018-09-16T21:03:26.385Z,4.80
2018-09-16T21:05:54.109Z,5.60
2018-09-16T21:08:21.760Z,4.87
2018-09-16T21:10:49.492Z,5.03
2018-09-16T21:13:17.907Z,4.30
2018-09-16T21:15:45.739Z,6.10
2018-09-16T21:18:13.743Z,5.60
2018-09-16T21:20:41.430Z,5.30
2018-09-16T21:23:09.145Z,5.70
2018-09-16T21:25:37.006Z,5.17
2018-09-16T21:28:04.753Z,6.27
2018-09-16T21:30:32.413Z,5.62
2018-09-16T21:33:00.331Z,5.55
2018-09-16T21:35:27.987Z,4.87
2018-09-16T21:37:55.647Z,4.87
2018-09-16T21:40:23.311Z,5.40
2018-09-16T21:42:50.996Z,5.17
2018-09-16T21:45:18.806Z,5.50
2018-09-16T21:47:46.545Z,5.45
2018-09-16T21:50:14.219Z,4.50
2018-09-16T21:52:41.936Z,5.00
2018-09-16T21:55:09.589Z,5.05
2018-09-16T21:57:37.293Z,5.50
2018-09-16T22:00:06.289Z,4.87
2018-09-16T22:02:33.955Z,4.93
2018-09-16T22:05:02.070Z,6.43
2018-09-16T22:07:29.762Z,6.03
2018-09-16T22:09:57.551Z,5.03
2018-09-16T22:12:25.174Z,5.10
2018-09-16T22:14:52.846Z,5.65
2018-09-16T22:17:20.579Z,5.20
2018-09-16T22:19:48.220Z,5.17
2018-09-16T22:22:15.854Z,5.50
2018-09-16T22:24:43.494Z,4.80
2018-09-16T22:27:11.090Z,5.72
2018-09-16T22:29:38.748Z,5.10
2018-09-16T22:32:06.380Z,5.33
2018-09-16T22:34:34.026Z,5.20
2018-09-16T22:37:01.689Z,5.62
2018-09-16T22:39:29.354Z,5.50
2018-09-16T22:41:56.970Z,6.43
2018-09-16T22:44:24.578Z,4.95
2018-09-16T22:46:52.201Z,5.13
2018-09-16T22:49:19.828Z,5.67
2018-09-16T22:51:47.838Z,5.97
2018-09-16T22:54:15.566Z,4.70
2018-09-16T22:56:43.211Z,4.80
2018-09-16T22:59:10.849Z,5.22
2018-09-16T23:01:38.498Z,5.17
2018-09-16T23:04:06.211Z,6.20
2018-09-16T23:06:33.886Z,4.80
2018-09-16T23:09:07.265Z,5.97
2018-09-16T23:11:34.870Z,4.90
2018-09-16T23:14:02.604Z,5.75
2018-09-16T23:16:30.248Z,5.40
2018-09-16T23:18:58.000Z,4.90
2018-09-16T23:21:25.573Z,5.20
2018-09-16T23:23:53.228Z,5.50
2018-09-16T23:26:21.821Z,5.60
2018-09-16T23:28:49.603Z,5.05
2018-09-16T23:31:17.297Z,4.87
2018-09-16T23:33:45.030Z,6.40
2018-09-16T23:36:13.065Z,4.73
2018-09-16T23:38:40.769Z,5.90
2018-09-16T23:41:08.493Z,6.53
2018-09-16T23:43:36.182Z,5.33
2018-09-16T23:46:03.857Z,4.87
2018-09-16T23:48:31.545Z,4.47
2018-09-16T23:50:59.255Z,4.53
2018-09-16T23:53:26.906Z,4.13
2018-09-16T23:55:54.547Z,4.60
2018-09-16T23:58:22.175Z,4.50
